Time;durP1;ratioP1;P1;durP2;ratioP2;P2;SDS_P1;SDS_P2;PMS_P1;PMS_P2;Temp;Humidity;BMP_temperature;BMP_pressure;BME280_temperature;BME280_humidity;BME280_pressure;Samples;Min_cycle;Max_cycle;Signal;HPM_P1;HPM_P2
2021/01/10 00:01:34;;;;;;;2.77;2.57;;;;;;;0.23;100.00;99848.73;3799139;77;392240;-75
2021/01/10 00:06:55;;;;;;;1.37;1.27;;;;;;;0.05;100.00;99848.41;3798774;77;396080;-75
2021/01/10 00:12:23;;;;;;;1.47;1.27;;;;;;;0.14;100.00;99844.62;3799781;77;383764;-75
2021/01/10 00:17:49;;;;;;;1.53;1.43;;;;;;;0.15;100.00;99852.20;3800660;77;388101;-75
2021/01/10 00:23:08;;;;;;;1.33;1.23;;;;;;;0.20;100.00;99837.16;3800774;77;391981;-75
2021/01/10 00:28:32;;;;;;;3.70;1.27;;;;;;;0.27;100.00;99840.20;3799550;77;388758;-75
2021/01/10 00:33:54;;;;;;;2.13;1.97;;;;;;;0.18;100.00;99846.14;3799690;77;391859;-75
2021/01/10 00:39:15;;;;;;;3.23;1.47;;;;;;;0.14;100.00;99841.91;3772793;77;395223;-75
2021/01/10 00:44:37;;;;;;;1.77;1.43;;;;;;;0.15;100.00;99841.37;3799337;77;396150;-75
2021/01/10 00:49:58;;;;;;;1.63;1.33;;;;;;;0.24;100.00;99834.09;3799318;77;396343;-75
2021/01/10 00:55:19;;;;;;;0.90;0.80;;;;;;;0.16;100.00;99836.21;3800340;77;391848;-75
2021/01/10 01:00:41;;;;;;;1.10;0.93;;;;;;;0.12;100.00;99850.89;3799384;77;392980;-75
2021/01/10 01:06:02;;;;;;;2.67;1.40;;;;;;;0.18;100.00;99843.44;3799092;77;396076;-75
2021/01/10 01:11:35;;;;;;;4.30;1.57;;;;;;;0.19;100.00;99847.20;3800056;77;383571;-75
2021/01/10 01:16:58;;;;;;;1.47;1.33;;;;;;;0.18;100.00;99845.61;3799477;77;389936;-75
2021/01/10 01:22:19;;;;;;;12.23;1.40;;;;;;;0.05;100.00;99853.25;3799892;77;389827;-76
2021/01/10 01:27:40;;;;;;;2.27;1.60;;;;;;;0.03;100.00;99860.90;3799006;77;396332;-75
2021/01/10 01:33:01;;;;;;;2.67;2.37;;;;;;;0.03;100.00;99864.14;3799283;77;396319;-75
2021/01/10 01:38:22;;;;;;;1.10;0.87;;;;;;;-0.05;100.00;99863.55;3800068;77;383584;-75
2021/01/10 01:43:43;;;;;;;0.90;0.70;;;;;;;0.22;100.00;99860.66;3800700;77;383579;-75
2021/01/10 01:49:08;;;;;;;2.40;1.40;;;;;;;0.14;100.00;99859.50;3799787;77;389772;-75
2021/01/10 01:54:30;;;;;;;1.00;0.70;;;;;;;-0.04;100.00;99862.45;3800985;76;383934;-75
2021/01/10 01:59:51;;;;;;;2.20;1.37;;;;;;;-0.05;100.00;99864.91;3799282;77;396343;-75
2021/01/10 02:05:15;;;;;;;14.10;1.77;;;;;;;-0.08;100.00;99864.73;3799400;77;394030;-75
2021/01/10 02:10:41;;;;;;;1.10;0.80;;;;;;;-0.09;100.00;99858.53;3801268;77;383584;-75
2021/01/10 02:16:03;;;;;;;6.50;1.90;;;;;;;-0.10;100.00;99862.34;3798960;77;391902;-75
2021/01/10 02:21:25;;;;;;;0.80;0.50;;;;;;;-0.02;100.00;99860.77;3800276;77;383764;-75
2021/01/10 02:26:47;;;;;;;1.07;0.97;;;;;;;-0.08;100.00;99861.45;3799390;77;396107;-75
2021/01/10 02:32:09;;;;;;;1.73;1.13;;;;;;;-0.03;100.00;99856.47;3799657;77;388719;-75
2021/01/10 02:38:01;;;;;;;5.80;1.73;;;;;;;-0.05;100.00;99862.20;3799362;77;396029;-75
2021/01/10 02:43:28;;;;;;;1.03;0.93;;;;;;;-0.17;100.00;99857.94;3799963;77;390005;-75
2021/01/10 02:48:49;;;;;;;0.90;0.70;;;;;;;-0.11;100.00;99856.69;3800426;77;385699;-75
2021/01/10 02:54:12;;;;;;;2.00;1.20;;;;;;;-0.15;100.00;99859.75;3799478;77;388049;-75
2021/01/10 02:59:37;;;;;;;3.53;2.30;;;;;;;-0.36;100.00;99847.89;3798967;77;396077;-75
2021/01/10 03:04:58;;;;;;;3.70;1.47;;;;;;;-0.54;100.00;99855.64;3800155;76;391893;-75
2021/01/10 03:10:19;;;;;;;1.50;0.97;;;;;;;-0.60;100.00;99852.82;3798984;77;396073;-76
2021/01/10 03:15:40;;;;;;;2.80;1.83;;;;;;;-0.82;100.00;99848.53;3799143;77;383569;-75
2021/01/10 03:21:02;;;;;;;1.30;1.20;;;;;;;-0.75;100.00;99842.39;3799347;77;392940;-75
2021/01/10 03:26:23;;;;;;;2.17;1.10;;;;;;;-0.78;100.00;99840.30;3799411;77;388813;-75
2021/01/10 03:31:44;;;;;;;0.83;0.57;;;;;;;-0.81;100.00;99836.62;3800485;77;383832;-75
2021/01/10 03:37:06;;;;;;;1.37;1.27;;;;;;;-0.80;100.00;99838.45;3799351;77;387935;-75
2021/01/10 03:42:27;;;;;;;2.13;1.33;;;;;;;-1.03;100.00;99840.64;3798663;77;396123;-76
2021/01/10 03:47:48;;;;;;;1.10;0.90;;;;;;;-1.08;100.00;99842.13;3799483;77;393172;-75
2021/01/10 03:53:09;;;;;;;1.00;0.90;;;;;;;-0.95;100.00;99846.13;3800453;77;383560;-75
2021/01/10 03:58:30;;;;;;;0.87;0.67;;;;;;;-0.99;100.00;99845.12;3800509;77;383831;-76
2021/01/10 04:03:52;;;;;;;0.93;0.80;;;;;;;-0.91;100.00;99842.27;3800142;77;387748;-75
2021/01/10 04:09:13;;;;;;;1.67;1.07;;;;;;;-0.88;100.00;99844.33;3799431;77;392108;-76
2021/01/10 04:14:35;;;;;;;1.70;1.17;;;;;;;-1.12;100.00;99845.98;3794291;77;394994;-76
2021/01/10 04:19:56;;;;;;;1.63;1.43;;;;;;;-1.18;100.00;99851.79;3800055;77;383580;-76
2021/01/10 04:25:18;;;;;;;1.50;1.00;;;;;;;-1.16;100.00;99853.08;3799591;77;391911;-76
2021/01/10 04:30:39;;;;;;;1.10;1.00;;;;;;;-1.07;100.00;99852.60;3799904;77;385663;-76
2021/01/10 04:36:00;;;;;;;1.10;1.00;;;;;;;-1.10;100.00;99848.37;3800316;77;383628;-76
2021/01/10 04:41:21;;;;;;;1.73;1.63;;;;;;;-1.12;100.00;99845.98;3799007;77;396619;-76
2021/01/10 04:46:43;;;;;;;1.33;1.23;;;;;;;-1.10;100.00;99851.88;3799633;77;392134;-76
2021/01/10 04:52:07;;;;;;;1.20;1.10;;;;;;;-1.07;100.00;99855.87;3799689;77;387707;-76
2021/01/10 04:57:30;;;;;;;0.83;0.57;;;;;;;-1.05;100.00;99850.41;3800313;77;383633;-76
2021/01/10 05:02:54;;;;;;;2.17;0.93;;;;;;;-1.04;100.00;99863.34;3797253;77;393977;-76
2021/01/10 05:08:15;;;;;;;1.73;0.90;;;;;;;-1.05;100.00;99862.56;3799517;77;394000;-76
2021/01/10 05:13:36;;;;;;;1.40;0.93;;;;;;;-1.01;100.00;99864.09;3799893;77;394009;-76
2021/01/10 05:18:57;;;;;;;0.90;0.67;;;;;;;-1.00;100.00;99864.34;3800647;77;383804;-76
2021/01/10 05:24:21;;;;;;;1.73;1.00;;;;;;;-1.00;100.00;99862.43;3800097;77;383588;-76
2021/01/10 05:29:47;;;;;;;3.90;0.97;;;;;;;-0.98;100.00;99858.09;3800411;77;383784;-76
2021/01/10 05:35:08;;;;;;;1.73;0.77;;;;;;;-0.99;100.00;99850.53;3800465;77;383553;-76
2021/01/10 05:40:31;;;;;;;0.90;0.70;;;;;;;-0.91;100.00;99849.02;3800445;77;383793;-76
2021/01/10 05:45:53;;;;;;;0.90;0.80;;;;;;;-0.88;100.00;99857.30;3800427;77;383986;-76
2021/01/10 05:51:16;;;;;;;2.93;2.33;;;;;;;-0.72;100.00;99856.62;3799535;77;383568;-76
2021/01/10 05:56:37;;;;;;;1.07;0.97;;;;;;;-0.86;100.00;99861.03;3799552;77;391883;-77
2021/01/10 06:01:59;;;;;;;6.07;2.40;;;;;;;-0.89;100.00;99865.72;3799396;77;395239;-76
2021/01/10 06:07:23;;;;;;;0.80;0.60;;;;;;;-0.70;100.00;99857.11;3800471;77;383588;-76
2021/01/10 06:12:46;;;;;;;2.67;1.57;;;;;;;-0.83;100.00;99870.67;3800347;76;394196;-76
2021/01/10 06:18:07;;;;;;;0.90;0.67;;;;;;;-0.93;100.00;99869.58;3800234;77;389897;-77
2021/01/10 06:23:28;;;;;;;0.90;0.60;;;;;;;-0.77;100.00;99868.12;3800314;77;383616;-77
2021/01/10 06:29:10;;;;;;;2.83;1.73;;;;;;;-0.76;100.00;99866.45;3799417;77;385795;-76
2021/01/10 06:34:32;;;;;;;1.00;0.73;;;;;;;-0.89;100.00;99863.02;3800566;77;389781;-77
2021/01/10 06:39:56;;;;;;;1.20;1.03;;;;;;;-0.93;100.00;99862.02;3799869;77;387689;-77
2021/01/10 06:45:19;;;;;;;1.20;0.63;;;;;;;-0.92;100.00;99862.27;3800941;76;390052;-76
2021/01/10 06:50:43;;;;;;;2.30;0.80;;;;;;;-0.91;100.00;99867.91;3799758;77;394060;-77
2021/01/10 06:56:06;;;;;;;5.80;3.10;;;;;;;-0.93;100.00;99867.41;3800001;76;396257;-76
2021/01/10 07:01:47;;;;;;;2.70;1.87;;;;;;;-0.91;100.00;99863.87;3799268;77;394265;-76
2021/01/10 07:07:08;;;;;;;1.57;1.47;;;;;;;-0.88;100.00;99859.19;3799307;77;396028;-76
2021/01/10 07:12:29;;;;;;;4.10;2.17;;;;;;;-0.84;100.00;99862.32;3799174;77;396268;-77
2021/01/10 07:18:05;;;;;;;7.03;2.60;;;;;;;-0.82;100.00;99860.69;3798988;77;395302;-76
2021/01/10 07:23:28;;;;;;;2.50;1.60;;;;;;;-0.86;100.00;99863.73;3799622;77;392253;-76
2021/01/10 07:28:50;;;;;;;1.17;1.07;;;;;;;-0.47;100.00;99866.80;3799696;77;392156;-76
2021/01/10 07:34:12;;;;;;;2.23;1.53;;;;;;;-0.74;100.00;99873.70;3799479;77;389819;-76
2021/01/10 07:39:37;;;;;;;1.33;0.80;;;;;;;-0.81;100.00;99871.73;3799976;77;383565;-76
2021/01/10 07:45:20;;;;;;;1.40;1.30;;;;;;;-0.83;100.00;99873.94;3799735;77;391903;-76
2021/01/10 07:50:41;;;;;;;1.70;1.40;;;;;;;-0.75;100.00;99877.51;3800033;77;383804;-76
2021/01/10 07:56:16;;;;;;;3.17;0.90;;;;;;;-0.48;100.00;99876.58;3800265;77;383612;-76
2021/01/10 08:01:53;;;;;;;0.90;0.70;;;;;;;-0.67;100.00;99878.13;3801038;76;387939;-76
2021/01/10 08:07:18;;;;;;;1.20;1.03;;;;;;;-0.42;100.00;99882.09;3800173;77;383609;-76
2021/01/10 08:12:40;;;;;;;0.90;0.73;;;;;;;-0.49;100.00;99879.03;3801044;76;391852;-76
2021/01/10 08:18:03;;;;;;;0.80;0.50;;;;;;;-0.43;100.00;99878.61;3800478;77;383575;-76
2021/01/10 08:23:24;;;;;;;1.20;0.67;;;;;;;-0.46;100.00;99884.63;3773594;77;383568;-76
2021/01/10 08:28:48;;;;;;;12.70;1.90;;;;;;;-0.34;100.00;99890.81;3799711;77;387798;-76
2021/01/10 08:34:16;;;;;;;0.90;0.60;;;;;;;-0.28;100.00;99889.03;3800330;77;383588;-75
2021/01/10 08:39:36;;;;;;;3.00;1.67;;;;;;;-0.20;100.00;99892.34;3800381;77;391891;-75
2021/01/10 08:45:15;;;;;;;2.80;2.60;;;;;;;-0.09;100.00;99901.80;3798871;77;396171;-76
2021/01/10 08:50:40;;;;;;;1.37;1.27;;;;;;;-0.01;100.00;99899.12;3800540;77;392111;-76
2021/01/10 08:56:05;;;;;;;4.07;2.47;;;;;;;0.12;100.00;99901.50;3798338;77;396299;-76
2021/01/10 09:01:27;;;;;;;3.47;2.07;;;;;;;0.31;100.00;99908.27;3795895;77;395036;-75
2021/01/10 09:07:04;;;;;;;10.60;1.87;;;;;;;0.52;100.00;99906.61;3799705;77;391887;-75
2021/01/10 09:12:40;;;;;;;0.90;0.63;;;;;;;0.69;100.00;99909.91;3800752;77;389834;-76
2021/01/10 09:18:04;;;;;;;3.63;1.00;;;;;;;0.84;100.00;99911.63;3800097;76;395047;-75
2021/01/10 09:23:26;;;;;;;1.37;1.27;;;;;;;1.06;100.00;99920.98;3798851;77;396280;-75
2021/01/10 09:28:47;;;;;;;1.50;0.87;;;;;;;1.33;100.00;99913.34;3799674;77;388774;-75
2021/01/10 09:34:09;;;;;;;1.70;1.60;;;;;;;1.24;100.00;99913.91;3799384;77;383560;-76
2021/01/10 09:39:41;;;;;;;5.40;2.00;;;;;;;1.36;100.00;99927.63;3799150;77;393993;-75
2021/01/10 09:45:02;;;;;;;4.03;1.90;;;;;;;1.76;100.00;99927.69;3798980;77;395091;-76
2021/01/10 09:50:23;;;;;;;0.90;0.80;;;;;;;1.98;100.00;99930.20;3800090;77;392156;-75
2021/01/10 09:55:48;;;;;;;1.57;1.47;;;;;;;2.14;100.00;99925.27;3799188;77;396017;-75
2021/01/10 10:01:09;;;;;;;1.50;1.40;;;;;;;2.11;100.00;99927.84;3799397;77;393981;-75
2021/01/10 10:06:49;;;;;;;1.40;1.30;;;;;;;2.23;100.00;99917.91;3799890;77;383808;-75
2021/01/10 10:12:10;;;;;;;2.87;2.53;;;;;;;2.34;100.00;99915.86;3799121;77;393953;-75
2021/01/10 10:17:34;;;;;;;4.80;2.73;;;;;;;3.84;100.00;99915.52;3798841;77;396033;-75
2021/01/10 10:22:58;;;;;;;1.40;0.90;;;;;;;4.91;94.65;99891.93;3799817;77;383585;-76
2021/01/10 10:28:23;;;;;;;5.20;1.90;;;;;;;5.81;86.87;99891.16;3789050;77;397055;-76
2021/01/10 10:33:41;;;;;;;1.73;1.33;;;;;;;6.37;79.86;99884.46;3799413;77;388963;-76
2021/01/10 10:39:03;;;;;;;4.23;3.77;;;;;;;6.77;77.87;99883.69;3798830;77;396065;-74
2021/01/10 10:44:24;;;;;;;2.83;1.10;;;;;;;6.59;76.47;99879.73;3799336;77;389784;-74
2021/01/10 10:49:45;;;;;;;38.83;2.13;;;;;;;7.03;72.65;99876.48;3799343;77;383873;-74
2021/01/10 10:55:06;;;;;;;5.13;3.03;;;;;;;7.09;70.91;99874.28;3798859;77;397034;-74
2021/01/10 11:00:28;;;;;;;1.23;1.10;;;;;;;7.65;68.04;99871.59;3799023;77;392868;-74
2021/01/10 11:05:49;;;;;;;2.70;2.00;;;;;;;6.61;65.37;99865.14;3799229;77;392880;-74
2021/01/10 11:11:10;;;;;;;1.93;1.50;;;;;;;7.09;67.13;99857.86;3798909;77;394954;-74
2021/01/10 11:16:36;;;;;;;1.00;0.73;;;;;;;7.29;63.45;99857.53;3799555;77;392940;-74
2021/01/10 11:21:57;;;;;;;1.73;1.63;;;;;;;6.92;62.57;99848.09;3799263;77;388897;-74
2021/01/10 11:27:18;;;;;;;3.93;2.20;;;;;;;7.01;62.83;99847.91;3798744;77;396079;-74
2021/01/10 11:32:40;;;;;;;2.60;1.90;;;;;;;6.73;66.96;99849.43;3798937;77;394986;-74
2021/01/10 11:38:02;;;;;;;1.37;1.00;;;;;;;6.72;68.52;99835.54;3799155;77;392900;-74
2021/01/10 11:43:23;;;;;;;1.80;1.70;;;;;;;6.49;65.25;99828.33;3798931;77;396371;-74
2021/01/10 11:48:45;;;;;;;1.73;1.00;;;;;;;6.43;67.36;99829.75;3799431;77;387914;-75
2021/01/10 11:54:07;;;;;;;3.63;1.97;;;;;;;5.93;67.03;99822.03;3798745;77;397034;-74
2021/01/10 11:59:28;;;;;;;2.70;1.70;;;;;;;5.70;68.06;99813.59;3798776;77;397044;-73
2021/01/10 12:04:49;;;;;;;1.30;1.03;;;;;;;5.54;72.87;99811.41;3799436;77;383584;-73
2021/01/10 12:10:11;;;;;;;7.83;4.15;;;;;;;5.48;70.90;99807.12;3750000;77;3564743;-75
2021/01/10 12:15:34;;;;;;;5.27;2.53;;;;;;;5.36;72.15;99807.97;3798811;77;397037;-73
2021/01/10 12:20:55;;;;;;;2.33;2.00;;;;;;;5.04;72.73;99798.64;3798946;77;395194;-73
2021/01/10 12:26:18;;;;;;;4.80;3.87;;;;;;;5.45;70.75;99791.44;3798638;77;397248;-73
2021/01/10 12:31:39;;;;;;;4.33;2.17;;;;;;;5.23;72.15;99794.14;3798736;77;396101;-75
2021/01/10 12:37:00;;;;;;;4.33;2.40;;;;;;;4.79;73.10;99791.66;3799228;77;389776;-75
2021/01/10 12:42:22;;;;;;;3.97;2.73;;;;;;;4.76;75.76;99795.09;3799123;77;391844;-75
2021/01/10 12:47:46;;;;;;;1.10;0.77;;;;;;;4.91;74.47;99790.28;3799578;77;388940;-75
2021/01/10 12:53:07;;;;;;;1.37;1.27;;;;;;;4.85;74.88;99790.27;3800070;77;395071;-74
2021/01/10 12:58:29;;;;;;;2.87;2.67;;;;;;;5.01;74.60;99788.41;3798876;77;396104;-74
2021/01/10 13:03:50;;;;;;;1.60;1.30;;;;;;;4.99;75.65;99780.59;3799574;77;386749;-75
2021/01/10 13:09:11;;;;;;;2.43;2.30;;;;;;;5.31;72.68;99777.41;3798923;77;392905;-75
2021/01/10 13:14:33;;;;;;;4.43;3.53;;;;;;;5.61;71.32;99774.75;3799009;77;396269;-74
2021/01/10 13:19:58;;;;;;;2.50;1.80;;;;;;;5.73;69.44;99776.05;3798911;77;396314;-74
2021/01/10 13:25:19;;;;;;;2.37;2.10;;;;;;;5.84;68.11;99763.48;3798712;77;397033;-75
2021/01/10 13:30:41;;;;;;;1.43;1.33;;;;;;;6.20;66.20;99773.34;3799465;77;392918;-75
2021/01/10 13:36:02;;;;;;;2.77;1.90;;;;;;;6.41;64.89;99767.81;3799161;77;396053;-73
2021/01/10 13:41:24;;;;;;;2.20;2.10;;;;;;;6.43;63.88;99770.99;3798845;77;396127;-75
2021/01/10 13:46:46;;;;;;;1.73;1.10;;;;;;;6.21;65.25;99773.02;3799190;77;390746;-73
2021/01/10 13:52:07;;;;;;;2.27;1.87;;;;;;;6.08;65.14;99767.41;3772088;77;397270;-72
2021/01/10 13:57:28;;;;;;;5.07;1.77;;;;;;;6.29;67.54;99767.94;3798708;77;397269;-73
2021/01/10 14:02:50;;;;;;;2.00;1.33;;;;;;;6.69;63.46;99764.37;3799337;77;392852;-72
2021/01/10 14:08:12;;;;;;;1.87;1.53;;;;;;;7.27;67.89;99767.56;3799169;77;394911;-73
2021/01/10 14:13:33;;;;;;;2.90;1.83;;;;;;;7.47;60.80;99765.63;3799151;77;394968;-73
2021/01/10 14:18:56;;;;;;;6.43;1.90;;;;;;;7.49;61.89;99774.24;3798685;77;396084;-73
2021/01/10 14:24:19;;;;;;;3.10;2.00;;;;;;;7.62;66.10;99771.58;3772242;77;394919;-73
2021/01/10 14:29:41;;;;;;;5.17;4.30;;;;;;;8.07;65.93;99763.59;3798711;77;397189;-73
2021/01/10 14:35:04;;;;;;;6.67;2.57;;;;;;;7.97;61.08;99757.34;3798826;77;388749;-73
2021/01/10 14:40:25;;;;;;;1.80;1.70;;;;;;;7.18;60.98;99768.38;3798547;77;397031;-73
2021/01/10 14:45:46;;;;;;;2.40;2.20;;;;;;;7.20;64.89;99774.27;3798780;77;397038;-73
2021/01/10 14:51:13;;;;;;;3.53;2.17;;;;;;;6.87;65.24;99776.47;3798868;77;396994;-73
2021/01/10 14:56:41;;;;;;;3.63;3.00;;;;;;;6.58;66.17;99777.78;3799657;76;397262;-73
2021/01/10 15:02:02;;;;;;;3.57;1.73;;;;;;;6.14;68.69;99784.33;3799017;77;395311;-73
2021/01/10 15:07:23;;;;;;;1.80;1.70;;;;;;;5.73;68.17;99781.52;3798868;77;397237;-73
2021/01/10 15:12:45;;;;;;;1.33;1.17;;;;;;;5.14;69.30;99785.89;3799248;77;391910;-73
2021/01/10 15:18:06;;;;;;;3.80;3.37;;;;;;;4.48;72.22;99794.79;3798570;77;397273;-74
2021/01/10 15:23:27;;;;;;;2.03;1.90;;;;;;;4.11;74.62;99801.36;3798741;77;397010;-74
2021/01/10 15:28:51;;;;;;;7.60;2.40;;;;;;;3.82;75.36;99803.47;3799247;77;394928;-74
2021/01/10 15:34:12;;;;;;;1.47;1.00;;;;;;;3.46;76.86;99800.09;3799337;77;387827;-74
2021/01/10 15:39:33;;;;;;;2.80;2.60;;;;;;;3.30;77.53;99808.64;3799144;77;392943;-74
2021/01/10 15:44:54;;;;;;;1.67;1.57;;;;;;;3.06;77.51;99808.30;3798994;77;391887;-74
2021/01/10 15:50:15;;;;;;;6.73;2.10;;;;;;;2.56;81.76;99817.87;3798678;77;396151;-74
2021/01/10 15:55:36;;;;;;;2.00;1.43;;;;;;;2.26;85.29;99820.13;3799056;77;396116;-73
2021/01/10 16:00:58;;;;;;;6.63;1.87;;;;;;;1.84;89.29;99822.45;3799139;77;392142;-74
2021/01/10 16:06:19;;;;;;;1.37;1.27;;;;;;;1.54;92.54;99820.75;3799287;77;391941;-74
2021/01/10 16:11:44;;;;;;;4.27;2.67;;;;;;;1.15;95.79;99823.67;3798800;77;396123;-74
2021/01/10 16:17:05;;;;;;;3.23;2.93;;;;;;;1.06;99.00;99826.16;3797184;77;396076;-74
2021/01/10 16:22:30;;;;;;;1.20;1.10;;;;;;;0.76;100.00;99826.30;3799736;77;383777;-74
2021/01/10 16:27:54;;;;;;;1.93;1.03;;;;;;;0.62;100.00;99824.30;3799756;77;387802;-74
2021/01/10 16:33:15;;;;;;;7.00;3.20;;;;;;;0.63;100.00;99817.78;3799505;77;383772;-74
2021/01/10 16:38:38;;;;;;;3.27;2.00;;;;;;;0.40;100.00;99820.36;3799258;77;393942;-74
2021/01/10 16:43:59;;;;;;;3.40;1.30;;;;;;;0.25;100.00;99816.18;3799819;77;384125;-74
2021/01/10 16:49:20;;;;;;;2.27;1.80;;;;;;;0.09;100.00;99819.08;3799374;77;392137;-74
2021/01/10 16:54:42;;;;;;;3.33;3.13;;;;;;;0.05;100.00;99818.66;3798950;77;396076;-74
2021/01/10 17:00:03;;;;;;;1.70;1.60;;;;;;;-0.17;100.00;99820.09;3798947;77;396064;-74
2021/01/10 17:05:24;;;;;;;2.13;1.60;;;;;;;-0.31;100.00;99817.22;3799665;77;383565;-74
2021/01/10 17:10:45;;;;;;;1.27;1.17;;;;;;;-0.48;100.00;99817.13;3799491;77;387681;-74
2021/01/10 17:16:09;;;;;;;1.00;0.70;;;;;;;-0.65;100.00;99824.56;3799845;77;387790;-74
2021/01/10 17:21:30;;;;;;;2.43;1.67;;;;;;;-0.79;100.00;99819.79;3799840;76;396068;-74
2021/01/10 17:26:54;;;;;;;3.80;2.93;;;;;;;-0.77;100.00;99833.01;3799154;77;395283;-74
2021/01/10 17:32:15;;;;;;;5.10;2.27;;;;;;;-0.82;100.00;99834.46;3799536;76;396337;-74
2021/01/10 17:37:38;;;;;;;1.10;1.00;;;;;;;-0.88;100.00;99837.58;3799875;77;391883;-75
2021/01/10 17:42:59;;;;;;;2.67;1.37;;;;;;;-0.97;100.00;99844.28;3799692;77;388739;-74
2021/01/10 17:48:20;;;;;;;5.53;2.97;;;;;;;-1.14;100.00;99837.95;3798676;77;396083;-74
2021/01/10 17:53:42;;;;;;;5.73;5.17;;;;;;;-1.07;100.00;99847.20;3799418;77;396284;-74
2021/01/10 17:59:03;;;;;;;4.30;2.43;;;;;;;-1.26;100.00;99845.77;3799332;77;392911;-74
2021/01/10 18:04:24;;;;;;;4.97;4.27;;;;;;;-1.22;100.00;99846.20;3798612;77;396325;-74
2021/01/10 18:09:45;;;;;;;4.43;3.70;;;;;;;-1.36;100.00;99845.45;3799006;77;392233;-75
2021/01/10 18:15:08;;;;;;;1.47;1.37;;;;;;;-1.48;100.00;99847.85;3799296;77;396303;-74
2021/01/10 18:20:30;;;;;;;3.63;1.03;;;;;;;-1.64;100.00;99849.84;3799497;77;393949;-74
2021/01/10 18:25:51;;;;;;;2.03;1.77;;;;;;;-1.77;100.00;99852.53;3799156;77;396124;-74
2021/01/10 18:31:12;;;;;;;1.23;1.13;;;;;;;-1.81;100.00;99853.69;3799678;77;383588;-74
2021/01/10 18:36:33;;;;;;;1.40;1.17;;;;;;;-1.83;100.00;99851.83;3799416;77;396284;-74
2021/01/10 18:41:55;;;;;;;3.67;3.23;;;;;;;-1.97;100.00;99850.23;3798994;77;391961;-74
2021/01/10 18:47:16;;;;;;;3.60;1.80;;;;;;;-2.06;100.00;99850.14;3798984;77;396356;-74
2021/01/10 18:52:37;;;;;;;1.50;1.40;;;;;;;-2.11;100.00;99850.77;3799631;77;392960;-74
2021/01/10 18:57:58;;;;;;;2.07;1.60;;;;;;;-2.28;100.00;99856.75;3798862;77;396037;-75
2021/01/10 19:03:19;;;;;;;1.50;1.20;;;;;;;-2.34;100.00;99851.75;3799545;77;390850;-74
2021/01/10 19:08:40;;;;;;;2.80;1.93;;;;;;;-2.29;100.00;99852.45;3798575;77;396313;-74
2021/01/10 19:14:01;;;;;;;2.87;2.67;;;;;;;-2.17;100.00;99856.80;3797371;77;396309;-75
2021/01/10 19:19:23;;;;;;;1.47;1.03;;;;;;;-2.05;100.00;99858.48;3799402;77;396134;-74
2021/01/10 19:24:45;;;;;;;2.00;1.90;;;;;;;-2.19;100.00;99860.36;3798919;77;396083;-74
2021/01/10 19:30:12;;;;;;;4.27;1.33;;;;;;;-2.34;100.00;99859.27;3799285;77;393974;-77
2021/01/10 19:35:33;;;;;;;1.90;1.80;;;;;;;-2.22;100.00;99851.52;3798749;77;391895;-74
2021/01/10 19:40:55;;;;;;;4.37;2.50;;;;;;;-2.23;100.00;99851.27;3798923;77;396311;-74
2021/01/10 19:46:19;;;;;;;1.70;1.60;;;;;;;-2.31;100.00;99847.91;3799431;77;391900;-74
2021/01/10 19:51:40;;;;;;;5.23;2.77;;;;;;;-2.34;100.00;99850.40;3799030;77;396056;-75
2021/01/10 19:57:01;;;;;;;1.90;1.77;;;;;;;-2.41;100.00;99855.38;3798963;77;396080;-74
2021/01/10 20:02:23;;;;;;;3.37;2.10;;;;;;;-2.54;100.00;99849.95;3799166;77;396163;-74
2021/01/10 20:07:46;;;;;;;3.50;3.20;;;;;;;-2.58;100.00;99851.63;3798655;77;396156;-75
2021/01/10 20:13:07;;;;;;;2.23;2.03;;;;;;;-2.81;100.00;99852.55;3798742;77;396024;-75
2021/01/10 20:18:28;;;;;;;3.17;2.97;;;;;;;-2.66;100.00;99850.95;3799306;77;396265;-77
2021/01/10 20:23:50;;;;;;;3.00;2.80;;;;;;;-2.72;100.00;99853.48;3799246;77;395090;-75
2021/01/10 20:29:13;;;;;;;2.60;2.40;;;;;;;-2.75;100.00;99855.44;3799175;77;396411;-75
2021/01/10 20:34:34;;;;;;;6.67;3.23;;;;;;;-3.03;100.00;99853.16;3799242;77;396096;-75
2021/01/10 20:39:56;;;;;;;4.33;3.10;;;;;;;-3.19;100.00;99856.37;3799279;77;396300;-75
2021/01/10 20:45:17;;;;;;;2.83;1.57;;;;;;;-3.36;100.00;99857.98;3799529;77;385663;-75
2021/01/10 20:50:38;;;;;;;1.60;1.30;;;;;;;-3.30;100.00;99856.81;3799403;77;391935;-75
2021/01/10 20:55:59;;;;;;;5.10;3.17;;;;;;;-3.43;100.00;99856.98;3799392;77;391859;-75
2021/01/10 21:01:32;;;;;;;1.70;1.30;;;;;;;-3.56;100.00;99853.68;3799345;77;394053;-75
2021/01/10 21:06:54;;;;;;;2.80;2.00;;;;;;;-3.68;100.00;99851.16;3798786;77;396115;-75
2021/01/10 21:12:17;;;;;;;1.73;1.63;;;;;;;-3.78;100.00;99857.44;3799486;77;387813;-75
2021/01/10 21:17:44;;;;;;;1.97;1.57;;;;;;;-3.76;100.00;99855.83;3799181;77;396091;-75
2021/01/10 21:23:05;;;;;;;4.30;1.60;;;;;;;-3.82;100.00;99852.39;3800144;76;396293;-75
2021/01/10 21:28:27;;;;;;;0.87;0.67;;;;;;;-3.62;100.00;99866.13;3800172;77;383529;-75
2021/01/10 21:33:48;;;;;;;1.23;0.93;;;;;;;-3.44;100.00;99858.63;3799824;77;394005;-75
2021/01/10 21:39:09;;;;;;;4.53;2.37;;;;;;;-3.41;100.00;99860.72;3799204;77;396116;-74
2021/01/10 21:44:30;;;;;;;2.67;2.43;;;;;;;-3.55;100.00;99856.59;3799003;77;396056;-75
2021/01/10 21:49:52;;;;;;;4.10;2.47;;;;;;;-3.64;100.00;99858.88;3798626;77;396328;-75
2021/01/10 21:55:13;;;;;;;5.53;2.17;;;;;;;-3.76;100.00;99858.52;3799758;77;383565;-75
2021/01/10 22:00:34;;;;;;;8.63;4.13;;;;;;;-3.83;100.00;99854.82;3799794;77;396418;-75
2021/01/10 22:05:55;;;;;;;4.53;4.23;;;;;;;-3.73;100.00;99857.39;3799402;77;392939;-75
2021/01/10 22:11:17;;;;;;;3.60;3.30;;;;;;;-3.96;100.00;99836.69;3799024;77;396093;-75
2021/01/10 22:16:40;;;;;;;1.50;1.40;;;;;;;-3.99;100.00;99857.17;3799630;77;396135;-74
2021/01/10 22:22:01;;;;;;;6.47;2.30;;;;;;;-4.13;100.00;99873.16;3799145;77;396025;-75
2021/01/10 22:27:22;;;;;;;5.57;1.90;;;;;;;-4.24;100.00;99852.86;3798966;77;396331;-75
2021/01/10 22:32:43;;;;;;;4.83;2.20;;;;;;;-4.19;100.00;99858.72;3796028;77;457507;-75
2021/01/10 22:38:06;;;;;;;1.53;1.43;;;;;;;-4.43;100.00;99849.84;3796297;77;457612;-75
2021/01/10 22:43:28;;;;;;;2.13;2.03;;;;;;;-4.43;100.00;99849.84;3799595;77;387698;-75
2021/01/10 22:48:52;;;;;;;1.87;1.37;;;;;;;-4.52;100.00;99848.84;3796221;77;457619;-74
2021/01/10 22:54:13;;;;;;;2.60;2.50;;;;;;;-4.65;100.00;99851.67;3799700;77;388063;-75
2021/01/10 22:59:34;;;;;;;2.23;2.03;;;;;;;-4.75;100.00;99832.71;3795657;77;457603;-75
2021/01/10 23:04:55;;;;;;;11.53;2.93;;;;;;;-4.84;100.00;99818.30;3772034;77;392122;-75
2021/01/10 23:10:17;;;;;;;2.10;1.93;;;;;;;-4.76;100.00;99830.55;3799027;77;396106;-75
2021/01/10 23:15:38;;;;;;;3.37;1.90;;;;;;;-4.75;100.00;99829.47;3796051;77;457785;-75
2021/01/10 23:20:59;;;;;;;2.93;1.33;;;;;;;-4.73;100.00;99828.66;3795792;77;481458;-75
2021/01/10 23:26:20;;;;;;;3.57;2.13;;;;;;;-4.91;100.00;99830.69;3795639;77;456558;-75
2021/01/10 23:31:45;;;;;;;2.03;1.93;;;;;;;-4.81;100.00;99825.24;3795279;77;481461;-75
2021/01/10 23:37:10;;;;;;;1.83;1.73;;;;;;;-4.62;100.00;99822.12;3796631;77;457803;-75
2021/01/10 23:42:31;;;;;;;1.37;1.27;;;;;;;-4.52;100.00;99821.48;3796511;77;457657;-75
2021/01/10 23:47:52;;;;;;;2.20;1.80;;;;;;;-4.91;100.00;99810.56;3795832;77;456499;-75
2021/01/10 23:53:13;;;;;;;3.83;2.40;;;;;;;-5.08;100.00;99810.17;3795976;77;457549;-75
2021/01/10 23:58:34;;;;;;;2.60;1.83;;;;;;;-5.17;100.00;99810.50;3795392;77;457548;-75
